• Join FlightAware (Why Join?)
  • Login
  • US Flag 
08:51PM EST


 

Airport Tracker/Info


-or-


 

Live Flight TrackerFlight Track Log ✈ CTL312 ✈ 29-Apr-2013 ✈ KBKL - KPTK

Flight Track Log - Related Links

Times and Time Zones

All times are in EDT time to prevent confusion due to time zone crossing. See the CTL312 flight status page for this flight to view local times or setup timezone preferences in your user account.

Time Position Orientation Groundspeed Altitude Reporting Facility
EDT Latitude Longitude Course Direction KTS MPH feet Rate Location/Type
09:37PM 41.5253 -81.6758 346° North 122 140 1,000  Level Cleveland Center
09:38PM 41.5606 -81.6875 346° North 153 176 2,000 540 Climbing Cleveland Center
09:39PM 41.6042 -81.7133 336° Northwest 181 208 2,100 240 Climbing Cleveland Center
09:40PM 41.6497 -81.7419 335° Northwest 176 203 2,600 480 Climbing Cleveland Center
09:41PM 41.6658 -81.7978 291° West 159 183 3,100 540 Climbing Cleveland Center
09:42PM 41.6819 -81.8592 289° West 167 192 3,700 480 Climbing Cleveland Center
09:43PM 41.6958 -81.9153 288° West 160 184 4,100 540 Climbing Cleveland Center
09:44PM 41.7056 -81.9736 283° West 159 183 4,900 660 Climbing Cleveland Center
09:45PM 41.7175 -82.0242 288° West 149 171 5,500 540 Climbing Cleveland Center
09:46PM 41.7314 -82.0800 288° West 156 180 6,100 240 Climbing Cleveland Center
09:47PM 41.7431 -82.1389 285° West 162 186 6,100  Level Cleveland Center
09:48PM 41.7567 -82.1975 287° West 165 190 6,200 -60 Climbing Cleveland Center
09:49PM 41.7706 -82.2592 287° West 165 190 6,000 -60 Descending Cleveland Center
09:50PM 41.7864 -82.3181 290° West 165 190 6,100 60 Climbing Cleveland Center
09:50PM 41.7903 -82.3322 290° West 165 190 6,100  Level Cleveland Center
09:51PM 41.7981 -82.3742 284° West 164 189 6,100  Level Cleveland Center
09:52PM 41.8114 -82.4386 286° West 166 191 6,100  Level Cleveland Center
09:53PM 41.8253 -82.4975 288° West 167 192 6,100  Level Cleveland Center
09:54PM 41.8325 -82.5617 279° West 166 191 6,100 -60 Level Cleveland Center
09:55PM 41.8458 -82.6208 287° West 169 194 6,000 -60 Descending Cleveland Center
09:56PM 41.8808 -82.6581 322° Northwest 179 206 6,000  Level Cleveland Center
09:58PM 41.9525 -82.6902 342° North  Level FlightAware Approximate
09:58PM 41.9778 -82.7058 342° North 174 200 6,100  Level Cleveland Center
09:59PM 42.0192 -82.7269 339° North 176 203 6,000  Descending Cleveland Center
10:00PM 42.0686 -82.7508 340° North 173 199 6,100  Climbing Cleveland Center
10:01PM 42.1142 -82.7747 339° North 174 200 6,100 -360 Level Cleveland Center
10:02PM 42.1550 -82.8156 323° Northwest 189 217 5,400 -720 Descending Cleveland Center
10:03PM 42.2000 -82.8564 326° Northwest 193 222 4,700 -720 Descending Cleveland Center
10:04PM 42.2431 -82.8914 329° Northwest 188 216 4,100 -360 Descending Cleveland Center
10:05PM 42.2839 -82.9322 324° Northwest 169 194 4,000 -60 Descending Cleveland Center
10:06PM 42.3269 -82.9789 321° Northwest 169 194 4,000  Level Cleveland Center
10:07PM 42.3658 -83.0142 326° Northwest 169 194 4,000  Level Cleveland Center
10:08PM 42.4044 -83.0522 324° Northwest 168 193 4,000  Level Cleveland Center
10:09PM 42.4392 -83.0844 326° Northwest 165 190 4,000 -240 Level Cleveland Center
10:10PM 42.4781 -83.1253 322° Northwest 180 207 3,600 -360 Descending Cleveland Center
10:11PM 42.5122 -83.1719 315° West 175 201 3,300 -300 Descending Cleveland Center
10:12PM 42.5528 -83.2242 317° Northwest 178 205 3,000 -360 Descending Cleveland Center
10:13PM 42.5872 -83.2708 315° West 179 206 2,600 -360 Descending Cleveland Center
10:14PM 42.6194 -83.3172 313° West 167 192 2,300 -360 Descending Cleveland Center
10:15PM 42.6494 -83.3667 310° West 170 196 1,900 -420 Descending Cleveland Center
10:17PM 42.6500 -83.4167 304° West  Level FlightAware Approximate
10:24PM 42.6656 -83.4205 304° West  Level Estimated
10:25PM 42.6656 -83.4205 304° West  Level Estimated
10:26PM 42.6656 -83.4205 304° West  Level Estimated